Time;durP1;ratioP1;P1;durP2;ratioP2;P2;SDS_P1;SDS_P2;PMS_P1;PMS_P2;Temp;Humidity;BMP_temperature;BMP_pressure;BME280_temperature;BME280_humidity;BME280_pressure;Samples;Min_cycle;Max_cycle;Signal;HPM_P1;HPM_P2
2022/10/20 00:00:05;;;;;;;;;;;;;;;;;;5004535;28;19936;-82
2022/10/20 00:02:30;;;;;;;;;;;;;;;;;;5015178;28;20292;-85
2022/10/20 00:04:56;;;;;;;;;;;;;;;;;;5013994;28;20029;-83
2022/10/20 00:07:21;;;;;;;;;;;;;;;;;;5007280;28;20293;-83
2022/10/20 00:09:46;;;;;;;;;;;;;;;;;;5022121;28;19917;-84
2022/10/20 00:12:12;;;;;;;;;;;;;;;;;;5009884;28;19917;-83
2022/10/20 00:14:37;;;;;;;;;;;;;;;;;;5007888;28;19922;-83
2022/10/20 00:17:04;;;;;;;;;;;;;;;;;;5006403;28;19941;-82
2022/10/20 00:19:29;;;;;;;;;;;;;;;;;;5013891;28;19914;-83
2022/10/20 00:21:55;;;;;;;;;;;;;;;;;;5015630;28;19920;-82
2022/10/20 00:24:20;;;;;;;;;;;;;;;;;;5023640;28;20316;-84
2022/10/20 00:26:46;;;;;;;;;;;;;;;;;;5028068;28;19936;-83
2022/10/20 00:29:11;;;;;;;;;;;;;;;;;;5017015;28;19921;-82
2022/10/20 00:31:36;;;;;;;;;;;;;;;;;;5016724;28;20334;-82
2022/10/20 00:34:02;;;;;;;;;;;;;;;;;;5005277;28;20331;-82
2022/10/20 00:36:27;;;;;;;;;;;;;;;;;;5033812;28;19948;-83
2022/10/20 00:38:52;;;;;;;;;;;;;;;;;;5013280;28;19953;-83
2022/10/20 00:41:18;;;;;;;;;;;;;;;;;;5010969;28;19936;-82
2022/10/20 00:43:44;;;;;;;;;;;;;;;;;;5008848;28;19914;-84
2022/10/20 00:46:09;;;;;;;;;;;;;;;;;;5002129;28;19935;-83
2022/10/20 00:48:34;;;;;;;;;;;;;;;;;;5014974;28;19921;-84
2022/10/20 00:51:00;;;;;;;;;;;;;;;;;;5017992;28;19976;-83
2022/10/20 00:53:25;;;;;;;;;;;;;;;;;;5029899;28;19913;-85
2022/10/20 00:55:50;;;;;;;;;;;;;;;;;;5029187;28;19937;-85
2022/10/20 00:58:16;;;;;;;;;;;;;;;;;;5034764;28;19913;-83
2022/10/20 01:00:41;;;;;;;;;;;;;;;;;;5035092;28;19941;-83
2022/10/20 01:03:07;;;;;;;;;;;;;;;;;;5035171;28;19936;-83
2022/10/20 01:05:32;;;;;;;;;;;;;;;;;;5034749;28;19935;-83
2022/10/20 01:07:57;;;;;;;;;;;;;;;;;;5035549;28;19897;-83
2022/10/20 01:10:23;;;;;;;;;;;;;;;;;;5036002;28;19917;-84
2022/10/20 01:12:48;;;;;;;;;;;;;;;;;;5034810;28;19914;-83
2022/10/20 01:15:13;;;;;;;;;;;;;;;;;;5015084;28;19922;-82
2022/10/20 01:17:39;;;;;;;;;;;;;;;;;;5017977;28;19909;-83
2022/10/20 01:20:04;;;;;;;;;;;;;;;;;;5028258;28;19913;-81
2022/10/20 01:22:29;;;;;;;;;;;;;;;;;;5016066;28;20059;-83
2022/10/20 01:24:55;;;;;;;;;;;;;;;;;;5029811;28;19913;-83
2022/10/20 01:27:20;;;;;;;;;;;;;;;;;;5018547;28;19983;-83
2022/10/20 01:29:48;;;;;;;;;;;;;;;;;;5003619;28;19924;-83
2022/10/20 01:32:13;;;;;;;;;;;;;;;;;;5037811;28;19953;-83
2022/10/20 01:34:39;;;;;;;;;;;;;;;;;;5037179;28;19913;-83
2022/10/20 01:37:04;;;;;;;;;;;;;;;;;;5022938;28;19914;-84
2022/10/20 01:39:30;;;;;;;;;;;;;;;;;;5018195;28;19944;-84
2022/10/20 01:41:55;;;;;;;;;;;;;;;;;;5016906;28;19978;-82
2022/10/20 01:44:20;;;;;;;;;;;;;;;;;;5018773;28;19989;-83
2022/10/20 01:46:46;;;;;;;;;;;;;;;;;;5018455;28;19914;-83
2022/10/20 01:49:11;;;;;;;;;;;;;;;;;;5017091;28;20417;-83
2022/10/20 01:51:36;;;;;;;;;;;;;;;;;;5015853;28;20270;-82
2022/10/20 01:54:02;;;;;;;;;;;;;;;;;;5012451;28;19956;-82
2022/10/20 01:56:27;;;;;;;;;;;;;;;;;;5010888;28;19914;-82
2022/10/20 01:58:53;;;;;;;;;;;;;;;;;;5012463;28;19940;-82
2022/10/20 02:01:18;;;;;;;;;;;;;;;;;;5013974;28;19914;-83
2022/10/20 02:03:43;;;;;;;;;;;;;;;;;;5019128;28;19920;-83
2022/10/20 02:06:09;;;;;;;;;;;;;;;;;;5032489;28;19918;-82
2022/10/20 02:08:34;;;;;;;;;;;;;;;;;;5031946;28;20696;-83
2022/10/20 02:11:00;;;;;;;;;;;;;;;;;;5034365;28;19913;-82
2022/10/20 02:13:25;;;;;;;;;;;;;;;;;;5034375;28;19914;-82
2022/10/20 02:15:50;;;;;;;;;;;;;;;;;;5029268;28;19897;-82
2022/10/20 02:18:16;;;;;;;;;;;;;;;;;;5006390;28;19909;-82
2022/10/20 02:20:41;;;;;;;;;;;;;;;;;;5022887;28;19957;-82
2022/10/20 02:23:06;;;;;;;;;;;;;;;;;;5030537;28;19914;-82
2022/10/20 02:25:32;;;;;;;;;;;;;;;;;;5016904;28;19916;-83
2022/10/20 02:27:57;;;;;;;;;;;;;;;;;;5024005;28;19962;-82
2022/10/20 02:30:23;;;;;;;;;;;;;;;;;;5037754;28;20312;-83
2022/10/20 02:32:48;;;;;;;;;;;;;;;;;;5021126;28;19904;-81
2022/10/20 02:35:13;;;;;;;;;;;;;;;;;;5037684;28;19904;-81
2022/10/20 02:37:39;;;;;;;;;;;;;;;;;;5037773;28;19933;-83
2022/10/20 02:40:04;;;;;;;;;;;;;;;;;;5036731;28;19972;-82
2022/10/20 02:42:30;;;;;;;;;;;;;;;;;;5036775;28;19898;-83
2022/10/20 02:44:55;;;;;;;;;;;;;;;;;;5039471;28;19936;-83
2022/10/20 02:47:21;;;;;;;;;;;;;;;;;;5037890;28;19988;-82
2022/10/20 02:49:46;;;;;;;;;;;;;;;;;;5036063;28;19910;-82
2022/10/20 02:52:11;;;;;;;;;;;;;;;;;;5035262;28;19917;-83
2022/10/20 02:54:37;;;;;;;;;;;;;;;;;;5018252;28;19925;-82
2022/10/20 02:57:03;;;;;;;;;;;;;;;;;;5034799;28;19984;-82
2022/10/20 02:59:28;;;;;;;;;;;;;;;;;;5007585;28;19944;-82
2022/10/20 03:01:54;;;;;;;;;;;;;;;;;;5007202;28;19973;-82
2022/10/20 03:04:19;;;;;;;;;;;;;;;;;;4998014;28;19917;-82
2022/10/20 03:06:44;;;;;;;;;;;;;;;;;;5013149;23;19948;-81
2022/10/20 03:09:10;;;;;;;;;;;;;;;;;;5021897;28;19929;-82
2022/10/20 03:11:35;;;;;;;;;;;;;;;;;;5018954;28;19914;-81
2022/10/20 03:14:00;;;;;;;;;;;;;;;;;;5004589;28;20395;-83
2022/10/20 03:16:26;;;;;;;;;;;;;;;;;;5016908;28;19921;-82
2022/10/20 03:18:51;;;;;;;;;;;;;;;;;;5028584;28;19949;-82
2022/10/20 03:21:17;;;;;;;;;;;;;;;;;;5016280;28;19897;-83
2022/10/20 03:23:42;;;;;;;;;;;;;;;;;;5027946;28;19921;-82
2022/10/20 03:26:08;;;;;;;;;;;;;;;;;;4997715;28;19914;-82
2022/10/20 03:28:33;;;;;;;;;;;;;;;;;;5024509;28;19913;-83
2022/10/20 03:30:58;;;;;;;;;;;;;;;;;;5013713;28;19914;-80
2022/10/20 03:33:24;;;;;;;;;;;;;;;;;;5021717;28;20297;-82
2022/10/20 03:35:49;;;;;;;;;;;;;;;;;;5008889;28;19913;-82
2022/10/20 03:38:15;;;;;;;;;;;;;;;;;;4998823;28;19914;-81
2022/10/20 03:40:40;;;;;;;;;;;;;;;;;;5017375;28;19917;-81
2022/10/20 03:43:05;;;;;;;;;;;;;;;;;;5012609;28;19917;-80
2022/10/20 03:45:31;;;;;;;;;;;;;;;;;;5008680;28;19964;-80
2022/10/20 03:47:56;;;;;;;;;;;;;;;;;;5016048;28;19913;-80
2022/10/20 03:50:22;;;;;;;;;;;;;;;;;;5028054;28;19921;-81
2022/10/20 03:52:47;;;;;;;;;;;;;;;;;;5028087;28;19913;-83
2022/10/20 03:55:13;;;;;;;;;;;;;;;;;;5027207;28;19921;-82
2022/10/20 03:57:38;;;;;;;;;;;;;;;;;;5029075;28;19990;-82
2022/10/20 04:00:03;;;;;;;;;;;;;;;;;;5009494;28;19914;-82
2022/10/20 04:02:36;;;;;;;;;;;;;;;;;;5029189;28;20398;-82
2022/10/20 04:05:02;;;;;;;;;;;;;;;;;;5011314;28;20000;-81
2022/10/20 04:07:27;;;;;;;;;;;;;;;;;;4991925;28;19928;-82
2022/10/20 04:09:53;;;;;;;;;;;;;;;;;;5024245;28;20297;-81
2022/10/20 04:12:18;;;;;;;;;;;;;;;;;;5006595;28;19949;-82
2022/10/20 04:14:43;;;;;;;;;;;;;;;;;;5023204;28;19913;-83
2022/10/20 04:17:09;;;;;;;;;;;;;;;;;;5011379;28;19914;-82
2022/10/20 04:19:34;;;;;;;;;;;;;;;;;;5005803;28;20000;-84
2022/10/20 04:22:00;;;;;;;;;;;;;;;;;;5026296;28;19956;-83
2022/10/20 04:24:25;;;;;;;;;;;;;;;;;;5023626;28;19938;-83
2022/10/20 04:26:51;;;;;;;;;;;;;;;;;;5013551;28;19914;-80
2022/10/20 04:29:16;;;;;;;;;;;;;;;;;;5007770;28;19922;-82
2022/10/20 04:31:42;;;;;;;;;;;;;;;;;;5009489;28;19914;-83
2022/10/20 04:34:07;;;;;;;;;;;;;;;;;;4993974;28;20028;-82
2022/10/20 04:36:33;;;;;;;;;;;;;;;;;;5021559;28;19959;-82
2022/10/20 04:38:58;;;;;;;;;;;;;;;;;;5014144;28;19989;-82
2022/10/20 04:41:24;;;;;;;;;;;;;;;;;;4997652;28;19920;-82
2022/10/20 04:43:50;;;;;;;;;;;;;;;;;;5025522;28;19914;-82
2022/10/20 04:46:16;;;;;;;;;;;;;;;;;;5010280;28;19945;-83
2022/10/20 04:48:41;;;;;;;;;;;;;;;;;;5022142;28;19921;-83
2022/10/20 04:51:07;;;;;;;;;;;;;;;;;;5033654;28;19913;-81
2022/10/20 04:53:32;;;;;;;;;;;;;;;;;;5014128;28;19930;-82
2022/10/20 04:55:58;;;;;;;;;;;;;;;;;;5028755;28;19932;-81
2022/10/20 04:58:23;;;;;;;;;;;;;;;;;;5020405;28;19934;-82
2022/10/20 05:00:49;;;;;;;;;;;;;;;;;;5023614;28;19948;-82
2022/10/20 05:03:14;;;;;;;;;;;;;;;;;;4993491;28;19921;-81
2022/10/20 05:05:40;;;;;;;;;;;;;;;;;;5024138;28;19936;-82
2022/10/20 05:08:05;;;;;;;;;;;;;;;;;;5015434;28;19917;-82
2022/10/20 05:10:30;;;;;;;;;;;;;;;;;;5025963;28;19940;-81
2022/10/20 05:12:56;;;;;;;;;;;;;;;;;;5011096;28;19960;-82
2022/10/20 05:15:21;;;;;;;;;;;;;;;;;;5006741;28;19941;-81
2022/10/20 05:17:47;;;;;;;;;;;;;;;;;;5022787;28;19909;-81
2022/10/20 05:20:12;;;;;;;;;;;;;;;;;;5016951;28;19936;-81
2022/10/20 05:22:38;;;;;;;;;;;;;;;;;;5001091;28;19913;-82
2022/10/20 05:25:03;;;;;;;;;;;;;;;;;;5027124;28;19914;-82
2022/10/20 05:27:29;;;;;;;;;;;;;;;;;;5009853;28;19910;-81
2022/10/20 05:29:54;;;;;;;;;;;;;;;;;;5024593;28;20376;-82
2022/10/20 05:32:19;;;;;;;;;;;;;;;;;;5025542;28;19960;-82
2022/10/20 05:34:45;;;;;;;;;;;;;;;;;;5025101;28;19920;-81
2022/10/20 05:37:10;;;;;;;;;;;;;;;;;;5002923;28;20394;-80
2022/10/20 05:39:36;;;;;;;;;;;;;;;;;;5018466;28;20059;-80
2022/10/20 05:42:01;;;;;;;;;;;;;;;;;;5018664;28;20297;-80
2022/10/20 05:44:26;;;;;;;;;;;;;;;;;;5008517;28;20377;-81
2022/10/20 05:46:52;;;;;;;;;;;;;;;;;;5010424;28;20024;-80
2022/10/20 05:49:17;;;;;;;;;;;;;;;;;;5000471;28;20367;-80
2022/10/20 05:51:42;;;;;;;;;;;;;;;;;;4994578;28;19914;-79
2022/10/20 05:54:08;;;;;;;;;;;;;;;;;;5001318;28;19914;-77
2022/10/20 05:56:33;;;;;;;;;;;;;;;;;;5003390;28;20273;-78
2022/10/20 05:58:58;;;;;;;;;;;;;;;;;;5009163;28;19914;-80
2022/10/20 06:01:24;;;;;;;;;;;;;;;;;;4998143;28;19914;-78
2022/10/20 06:03:49;;;;;;;;;;;;;;;;;;5013617;28;19972;-78
2022/10/20 06:06:15;;;;;;;;;;;;;;;;;;5005412;28;20405;-78
2022/10/20 06:08:40;;;;;;;;;;;;;;;;;;5008286;28;19921;-77
2022/10/20 06:11:05;;;;;;;;;;;;;;;;;;4998692;28;19914;-78
2022/10/20 06:13:31;;;;;;;;;;;;;;;;;;4995327;28;19920;-78
2022/10/20 06:15:56;;;;;;;;;;;;;;;;;;5004586;28;20033;-79
2022/10/20 06:18:22;;;;;;;;;;;;;;;;;;5009587;28;19918;-78
2022/10/20 06:20:47;;;;;;;;;;;;;;;;;;5007021;28;19913;-78
2022/10/20 06:23:12;;;;;;;;;;;;;;;;;;4997128;28;19969;-79
2022/10/20 06:25:38;;;;;;;;;;;;;;;;;;5010612;28;20396;-77
2022/10/20 06:28:03;;;;;;;;;;;;;;;;;;5000797;28;19953;-78
2022/10/20 06:30:29;;;;;;;;;;;;;;;;;;5002940;28;19987;-78
2022/10/20 06:32:55;;;;;;;;;;;;;;;;;;5005649;28;20331;-78
2022/10/20 06:35:23;;;;;;;;;;;;;;;;;;4995825;28;19972;-78
2022/10/20 06:37:48;;;;;;;;;;;;;;;;;;5008417;28;20451;-77
2022/10/20 06:40:14;;;;;;;;;;;;;;;;;;5001199;28;19913;-79
2022/10/20 06:42:39;;;;;;;;;;;;;;;;;;5001203;28;20502;-79
2022/10/20 06:45:05;;;;;;;;;;;;;;;;;;5009151;28;19913;-79
2022/10/20 06:47:30;;;;;;;;;;;;;;;;;;4997086;28;19920;-79
2022/10/20 06:49:56;;;;;;;;;;;;;;;;;;5007397;28;19921;-78
2022/10/20 06:52:21;;;;;;;;;;;;;;;;;;5002248;28;19920;-79
2022/10/20 06:54:46;;;;;;;;;;;;;;;;;;4998913;28;20383;-80
2022/10/20 06:57:12;;;;;;;;;;;;;;;;;;5007922;28;19918;-78
2022/10/20 06:59:37;;;;;;;;;;;;;;;;;;4993324;28;20362;-79
2022/10/20 07:02:03;;;;;;;;;;;;;;;;;;5000116;28;20051;-79
2022/10/20 07:04:28;;;;;;;;;;;;;;;;;;5011104;28;19971;-77
2022/10/20 07:06:53;;;;;;;;;;;;;;;;;;4997829;28;19925;-78
2022/10/20 07:09:19;;;;;;;;;;;;;;;;;;5008248;28;20380;-79
2022/10/20 07:11:45;;;;;;;;;;;;;;;;;;4997503;28;20384;-78
2022/10/20 07:14:11;;;;;;;;;;;;;;;;;;5004160;28;19932;-79
2022/10/20 07:16:36;;;;;;;;;;;;;;;;;;4994560;28;19914;-79
2022/10/20 07:19:02;;;;;;;;;;;;;;;;;;5013652;28;20372;-82
2022/10/20 07:21:27;;;;;;;;;;;;;;;;;;5000043;28;19985;-85
2022/10/20 07:23:54;;;;;;;;;;;;;;;;;;5008958;28;19913;-83
2022/10/20 07:26:20;;;;;;;;;;;;;;;;;;5024061;28;19933;-82
2022/10/20 07:28:45;;;;;;;;;;;;;;;;;;5002788;28;19944;-84
2022/10/20 07:31:11;;;;;;;;;;;;;;;;;;5010424;28;20008;-82
2022/10/20 07:33:36;;;;;;;;;;;;;;;;;;4995818;28;19921;-87
2022/10/20 07:36:02;;;;;;;;;;;;;;;;;;4988744;28;19997;-86
2022/10/20 07:38:27;;;;;;;;;;;;;;;;;;5003504;28;19914;-89
2022/10/20 07:40:52;;;;;;;;;;;;;;;;;;4998238;28;19913;-81
2022/10/20 07:43:18;;;;;;;;;;;;;;;;;;5004691;28;20369;-80
2022/10/20 07:45:43;;;;;;;;;;;;;;;;;;5006721;28;19921;-81
2022/10/20 07:48:08;;;;;;;;;;;;;;;;;;4998433;28;20326;-81
2022/10/20 07:50:34;;;;;;;;;;;;;;;;;;5000528;28;19917;-84
2022/10/20 07:52:59;;;;;;;;;;;;;;;;;;5004775;28;20112;-82
2022/10/20 07:55:25;;;;;;;;;;;;;;;;;;4993903;28;20392;-81
2022/10/20 07:57:50;;;;;;;;;;;;;;;;;;5010345;28;19960;-83
2022/10/20 08:00:15;;;;;;;;;;;;;;;;;;5011798;28;19913;-81
2022/10/20 08:02:41;;;;;;;;;;;;;;;;;;5009977;28;20399;-82
2022/10/20 08:05:06;;;;;;;;;;;;;;;;;;4994633;28;19913;-82
2022/10/20 08:07:32;;;;;;;;;;;;;;;;;;5013863;28;19928;-80
2022/10/20 08:09:57;;;;;;;;;;;;;;;;;;4995014;28;19917;-81
2022/10/20 08:12:23;;;;;;;;;;;;;;;;;;4996982;28;19949;-80
2022/10/20 08:14:48;;;;;;;;;;;;;;;;;;5013940;28;20396;-77
2022/10/20 08:17:13;;;;;;;;;;;;;;;;;;5007019;28;19913;-78
2022/10/20 08:19:39;;;;;;;;;;;;;;;;;;5013831;28;19914;-78
2022/10/20 08:22:04;;;;;;;;;;;;;;;;;;5002999;28;19914;-77
2022/10/20 08:24:30;;;;;;;;;;;;;;;;;;5013457;28;19913;-77
2022/10/20 08:26:55;;;;;;;;;;;;;;;;;;5001797;28;20262;-77
2022/10/20 08:29:21;;;;;;;;;;;;;;;;;;5012638;28;19924;-77
2022/10/20 08:31:46;;;;;;;;;;;;;;;;;;5014496;28;20004;-76
2022/10/20 08:34:12;;;;;;;;;;;;;;;;;;4996432;28;20318;-78
2022/10/20 08:36:37;;;;;;;;;;;;;;;;;;5014193;28;19913;-77
2022/10/20 08:39:03;;;;;;;;;;;;;;;;;;5008999;28;19914;-78
2022/10/20 08:41:28;;;;;;;;;;;;;;;;;;5001379;28;19944;-77
2022/10/20 08:43:53;;;;;;;;;;;;;;;;;;5001300;28;20072;-78
2022/10/20 08:46:19;;;;;;;;;;;;;;;;;;5009103;28;20380;-77
2022/10/20 08:48:44;;;;;;;;;;;;;;;;;;5010903;28;19916;-77
2022/10/20 08:51:09;;;;;;;;;;;;;;;;;;4999787;28;20399;-76
2022/10/20 08:53:35;;;;;;;;;;;;;;;;;;5003842;28;19914;-77
2022/10/20 08:56:00;;;;;;;;;;;;;;;;;;5006365;28;20020;-77
2022/10/20 08:58:25;;;;;;;;;;;;;;;;;;4997604;28;20341;-77
2022/10/20 09:00:51;;;;;;;;;;;;;;;;;;5010489;28;19922;-77
2022/10/20 09:03:16;;;;;;;;;;;;;;;;;;4999001;28;19913;-77
2022/10/20 09:05:42;;;;;;;;;;;;;;;;;;5008170;28;20384;-77
2022/10/20 09:08:07;;;;;;;;;;;;;;;;;;5005985;28;19917;-75
2022/10/20 09:10:33;;;;;;;;;;;;;;;;;;4997335;28;20004;-77
2022/10/20 09:12:58;;;;;;;;;;;;;;;;;;5008681;28;20270;-77
2022/10/20 09:15:25;;;;;;;;;;;;;;;;;;5000121;28;19913;-77
2022/10/20 09:17:51;;;;;;;;;;;;;;;;;;5002338;28;19913;-77
2022/10/20 09:20:16;;;;;;;;;;;;;;;;;;4990862;28;19913;-77
2022/10/20 09:22:41;;;;;;;;;;;;;;;;;;4996211;28;19921;-77
2022/10/20 09:25:07;;;;;;;;;;;;;;;;;;5009048;28;19921;-77
2022/10/20 09:27:32;;;;;;;;;;;;;;;;;;5001822;28;19949;-77
2022/10/20 09:29:58;;;;;;;;;;;;;;;;;;5002469;28;20112;-75
2022/10/20 09:32:24;;;;;;;;;;;;;;;;;;5015615;28;19952;-76
2022/10/20 09:34:49;;;;;;;;;;;;;;;;;;5000430;28;19917;-74
2022/10/20 09:37:15;;;;;;;;;;;;;;;;;;5006737;28;19920;-77
2022/10/20 09:39:40;;;;;;;;;;;;;;;;;;5002991;28;20439;-77
2022/10/20 09:42:05;;;;;;;;;;;;;;;;;;5000456;28;19909;-77
2022/10/20 09:44:31;;;;;;;;;;;;;;;;;;4992005;28;19952;-75
2022/10/20 09:46:56;;;;;;;;;;;;;;;;;;4992198;28;19914;-75
2022/10/20 09:49:21;;;;;;;;;;;;;;;;;;5000080;28;20391;-77
2022/10/20 09:51:47;;;;;;;;;;;;;;;;;;5002533;28;19917;-76
2022/10/20 09:54:12;;;;;;;;;;;;;;;;;;5005442;28;20407;-76
2022/10/20 09:56:37;;;;;;;;;;;;;;;;;;4979236;28;19918;-77
2022/10/20 09:59:03;;;;;;;;;;;;;;;;;;5008267;28;19914;-75
2022/10/20 10:01:28;;;;;;;;;;;;;;;;;;4999386;28;20019;-76
2022/10/20 10:03:58;;;;;;;;;;;;;;;;;;4999801;28;20107;-78
2022/10/20 10:06:24;;;;;;;;;;;;;;;;;;5008009;28;20380;-76
2022/10/20 10:08:49;;;;;;;;;;;;;;;;;;4996090;28;19910;-76
2022/10/20 10:11:14;;;;;;;;;;;;;;;;;;5005525;28;20012;-76
2022/10/20 10:13:40;;;;;;;;;;;;;;;;;;5000472;28;19914;-76
2022/10/20 10:16:05;;;;;;;;;;;;;;;;;;4998364;28;19914;-76
2022/10/20 10:18:31;;;;;;;;;;;;;;;;;;5007621;28;19914;-77
2022/10/20 10:20:56;;;;;;;;;;;;;;;;;;4996287;28;20333;-77
2022/10/20 10:23:22;;;;;;;;;;;;;;;;;;5012262;28;20369;-76
2022/10/20 10:25:47;;;;;;;;;;;;;;;;;;5000897;28;19914;-77
2022/10/20 10:28:12;;;;;;;;;;;;;;;;;;4999080;28;19936;-78
2022/10/20 10:30:38;;;;;;;;;;;;;;;;;;5008163;28;19917;-76
2022/10/20 10:33:03;;;;;;;;;;;;;;;;;;5014257;28;19945;-76
2022/10/20 10:35:29;;;;;;;;;;;;;;;;;;4987645;28;19956;-77
2022/10/20 10:37:54;;;;;;;;;;;;;;;;;;5006984;28;19959;-77
2022/10/20 10:40:20;;;;;;;;;;;;;;;;;;5012308;28;20008;-77
2022/10/20 10:42:45;;;;;;;;;;;;;;;;;;4998177;28;19914;-83
2022/10/20 10:45:10;;;;;;;;;;;;;;;;;;4989439;28;19936;-76
2022/10/20 10:47:36;;;;;;;;;;;;;;;;;;5009334;28;20412;-76
2022/10/20 10:50:01;;;;;;;;;;;;;;;;;;5011485;28;19928;-76
2022/10/20 10:52:26;;;;;;;;;;;;;;;;;;4994876;28;19921;-76
2022/10/20 10:54:52;;;;;;;;;;;;;;;;;;5008340;28;20436;-76
2022/10/20 10:57:17;;;;;;;;;;;;;;;;;;4998176;28;19917;-76
2022/10/20 10:59:43;;;;;;;;;;;;;;;;;;5000836;28;20004;-76
2022/10/20 11:02:08;;;;;;;;;;;;;;;;;;5005387;28;19914;-77
2022/10/20 11:04:34;;;;;;;;;;;;;;;;;;4996364;28;19936;-76
2022/10/20 11:06:59;;;;;;;;;;;;;;;;;;5006859;28;20284;-76
2022/10/20 11:09:24;;;;;;;;;;;;;;;;;;4998288;28;19924;-76
2022/10/20 11:11:50;;;;;;;;;;;;;;;;;;4999833;28;20351;-75
2022/10/20 11:14:15;;;;;;;;;;;;;;;;;;5004366;28;19913;-77
2022/10/20 11:16:41;;;;;;;;;;;;;;;;;;4995177;28;20000;-75
2022/10/20 11:19:06;;;;;;;;;;;;;;;;;;5006992;28;19914;-77
2022/10/20 11:21:32;;;;;;;;;;;;;;;;;;5000479;28;19959;-75
2022/10/20 11:23:58;;;;;;;;;;;;;;;;;;4998214;28;20377;-77
2022/10/20 11:26:23;;;;;;;;;;;;;;;;;;5005965;28;19920;-75
2022/10/20 11:28:48;;;;;;;;;;;;;;;;;;4978376;28;19929;-76
2022/10/20 11:31:14;;;;;;;;;;;;;;;;;;5004790;28;19913;-76
2022/10/20 11:33:39;;;;;;;;;;;;;;;;;;5000660;28;19913;-75
2022/10/20 11:36:04;;;;;;;;;;;;;;;;;;4999212;28;20297;-76
2022/10/20 11:38:30;;;;;;;;;;;;;;;;;;5008809;28;20000;-75
2022/10/20 11:40:55;;;;;;;;;;;;;;;;;;4996387;28;19967;-76
2022/10/20 11:43:21;;;;;;;;;;;;;;;;;;5007946;28;19915;-76
2022/10/20 11:45:46;;;;;;;;;;;;;;;;;;5004842;28;19913;-77
2022/10/20 11:48:11;;;;;;;;;;;;;;;;;;5000509;28;19918;-77
2022/10/20 11:50:37;;;;;;;;;;;;;;;;;;5010420;28;19921;-77
2022/10/20 11:53:02;;;;;;;;;;;;;;;;;;4999189;28;19962;-76
2022/10/20 11:55:28;;;;;;;;;;;;;;;;;;4989722;28;20345;-76
2022/10/20 11:57:53;;;;;;;;;;;;;;;;;;5005142;28;20004;-75
2022/10/20 12:00:19;;;;;;;;;;;;;;;;;;5000377;28;20362;-76
2022/10/20 12:02:44;;;;;;;;;;;;;;;;;;5010971;28;19914;-76
2022/10/20 12:05:10;;;;;;;;;;;;;;;;;;5000624;28;20428;-83
2022/10/20 12:07:35;;;;;;;;;;;;;;;;;;5006465;28;20521;-77
2022/10/20 12:10:01;;;;;;;;;;;;;;;;;;5014211;28;19920;-76
2022/10/20 12:12:26;;;;;;;;;;;;;;;;;;5013099;28;19914;-76
2022/10/20 12:14:52;;;;;;;;;;;;;;;;;;4997286;28;20316;-77
2022/10/20 12:17:17;;;;;;;;;;;;;;;;;;5007378;28;19930;-76
2022/10/20 12:19:43;;;;;;;;;;;;;;;;;;5003592;28;20011;-76
2022/10/20 12:22:08;;;;;;;;;;;;;;;;;;5000153;28;20374;-77
2022/10/20 12:24:34;;;;;;;;;;;;;;;;;;5009504;28;20285;-75
2022/10/20 12:26:59;;;;;;;;;;;;;;;;;;4998510;28;20286;-76
2022/10/20 12:29:24;;;;;;;;;;;;;;;;;;5007265;28;19918;-76
2022/10/20 12:31:50;;;;;;;;;;;;;;;;;;5004225;28;19913;-75
2022/10/20 12:34:15;;;;;;;;;;;;;;;;;;4998929;28;19920;-76
2022/10/20 12:36:41;;;;;;;;;;;;;;;;;;5009656;28;20289;-75
2022/10/20 12:39:06;;;;;;;;;;;;;;;;;;4999186;28;20004;-76
2022/10/20 12:41:32;;;;;;;;;;;;;;;;;;5004633;28;19918;-76
2022/10/20 12:43:58;;;;;;;;;;;;;;;;;;5004490;28;20033;-76
2022/10/20 12:46:23;;;;;;;;;;;;;;;;;;4998794;28;20372;-77
2022/10/20 12:48:55;;;;;;;;;;;;;;;;;;5006683;28;20296;-77
2022/10/20 12:51:21;;;;;;;;;;;;;;;;;;5013137;28;20391;-75
2022/10/20 12:53:46;;;;;;;;;;;;;;;;;;5005179;28;19910;-77
2022/10/20 12:56:13;;;;;;;;;;;;;;;;;;4994586;28;20404;-78
2022/10/20 12:58:38;;;;;;;;;;;;;;;;;;4993432;28;20392;-76
2022/10/20 13:01:03;;;;;;;;;;;;;;;;;;5011255;28;19913;-78
2022/10/20 13:03:29;;;;;;;;;;;;;;;;;;5028639;28;19914;-76
2022/10/20 13:05:54;;;;;;;;;;;;;;;;;;5014033;28;19914;-77
2022/10/20 13:08:20;;;;;;;;;;;;;;;;;;5013913;28;19924;-77
2022/10/20 13:10:45;;;;;;;;;;;;;;;;;;5029034;28;20011;-78
2022/10/20 13:13:11;;;;;;;;;;;;;;;;;;5013458;28;19917;-77
2022/10/20 13:15:36;;;;;;;;;;;;;;;;;;5029075;28;19914;-76
2022/10/20 13:18:02;;;;;;;;;;;;;;;;;;5022646;28;20390;-77
2022/10/20 13:20:27;;;;;;;;;;;;;;;;;;4992879;28;20348;-76
2022/10/20 13:22:52;;;;;;;;;;;;;;;;;;4993501;28;19944;-77
2022/10/20 13:25:18;;;;;;;;;;;;;;;;;;4994233;28;19960;-77
2022/10/20 13:27:43;;;;;;;;;;;;;;;;;;4992741;28;19914;-78
2022/10/20 13:30:09;;;;;;;;;;;;;;;;;;4994091;28;19925;-76
2022/10/20 13:32:34;;;;;;;;;;;;;;;;;;4994015;28;20158;-76
2022/10/20 13:35:01;;;;;;;;;;;;;;;;;;4993054;28;20404;-77
2022/10/20 13:37:26;;;;;;;;;;;;;;;;;;5017773;28;19921;-76
2022/10/20 13:39:52;;;;;;;;;;;;;;;;;;5014146;28;19917;-78
2022/10/20 13:42:17;;;;;;;;;;;;;;;;;;5014291;28;20423;-79
2022/10/20 13:44:43;;;;;;;;;;;;;;;;;;5035520;28;19914;-77
2022/10/20 13:47:08;;;;;;;;;;;;;;;;;;5020517;28;19917;-76
2022/10/20 13:49:33;;;;;;;;;;;;;;;;;;5014022;28;19918;-77
2022/10/20 13:51:59;;;;;;;;;;;;;;;;;;5028318;28;20005;-78
2022/10/20 13:54:24;;;;;;;;;;;;;;;;;;5007919;28;19952;-79
2022/10/20 13:56:50;;;;;;;;;;;;;;;;;;5013411;28;20339;-77
2022/10/20 13:59:16;;;;;;;;;;;;;;;;;;5013032;28;20373;-77
2022/10/20 14:01:41;;;;;;;;;;;;;;;;;;5011934;28;19964;-76
2022/10/20 14:04:07;;;;;;;;;;;;;;;;;;5027541;28;19913;-78
2022/10/20 14:06:32;;;;;;;;;;;;;;;;;;5012604;28;19924;-77
2022/10/20 14:08:58;;;;;;;;;;;;;;;;;;5012764;28;20373;-77
2022/10/20 14:11:23;;;;;;;;;;;;;;;;;;5007783;28;19914;-78
2022/10/20 14:13:48;;;;;;;;;;;;;;;;;;5012100;28;19939;-77
2022/10/20 14:16:14;;;;;;;;;;;;;;;;;;5027726;28;20023;-77
2022/10/20 14:18:39;;;;;;;;;;;;;;;;;;5013095;28;20278;-77
2022/10/20 14:21:07;;;;;;;;;;;;;;;;;;5027803;28;19960;-77
2022/10/20 14:23:33;;;;;;;;;;;;;;;;;;5012502;28;20399;-77
2022/10/20 14:25:58;;;;;;;;;;;;;;;;;;5012607;28;20385;-77
2022/10/20 14:28:24;;;;;;;;;;;;;;;;;;5028031;28;19948;-77
2022/10/20 14:30:49;;;;;;;;;;;;;;;;;;5007295;28;20372;-77
2022/10/20 14:33:15;;;;;;;;;;;;;;;;;;5012065;28;19913;-78
2022/10/20 14:35:40;;;;;;;;;;;;;;;;;;5027338;28;20392;-76
2022/10/20 14:38:08;;;;;;;;;;;;;;;;;;5027370;28;19910;-77
2022/10/20 14:40:34;;;;;;;;;;;;;;;;;;5027283;28;20023;-77
2022/10/20 14:42:59;;;;;;;;;;;;;;;;;;5012240;28;20434;-79
2022/10/20 14:45:24;;;;;;;;;;;;;;;;;;5029603;28;19920;-76
2022/10/20 14:47:50;;;;;;;;;;;;;;;;;;5015372;28;20372;-77
2022/10/20 14:50:15;;;;;;;;;;;;;;;;;;5014405;28;19917;-78
2022/10/20 14:52:40;;;;;;;;;;;;;;;;;;5011009;28;20294;-76
2022/10/20 14:55:06;;;;;;;;;;;;;;;;;;5012270;28;19909;-78
2022/10/20 14:57:31;;;;;;;;;;;;;;;;;;5012135;28;19921;-78
2022/10/20 15:00:03;;;;;;;;;;;;;;;;;;5012139;28;20008;-77
2022/10/20 15:02:30;;;;;;;;;;;;;;;;;;4986295;28;19913;-77
2022/10/20 15:04:56;;;;;;;;;;;;;;;;;;5011382;28;19910;-77
2022/10/20 15:07:21;;;;;;;;;;;;;;;;;;5015905;23;19991;-79
2022/10/20 15:09:47;;;;;;;;;;;;;;;;;;4975573;28;19921;-77
2022/10/20 15:12:13;;;;;;;;;;;;;;;;;;4993834;28;20288;-78
2022/10/20 15:14:38;;;;;;;;;;;;;;;;;;4997303;28;19913;-77
2022/10/20 15:17:04;;;;;;;;;;;;;;;;;;5018873;28;20036;-83
2022/10/20 15:19:33;;;;;;;;;;;;;;;;;;4985183;28;20392;-76
2022/10/20 15:21:59;;;;;;;;;;;;;;;;;;4982778;28;19937;-76
2022/10/20 15:24:24;;;;;;;;;;;;;;;;;;4997752;28;19914;-76
2022/10/20 15:26:50;;;;;;;;;;;;;;;;;;5001964;28;19914;-78
2022/10/20 15:29:16;;;;;;;;;;;;;;;;;;4989819;28;19982;-78
2022/10/20 15:31:50;;;;;;;;;;;;;;;;;;4993305;28;19918;-76
2022/10/20 15:34:16;;;;;;;;;;;;;;;;;;4997686;28;19960;-77
2022/10/20 15:36:42;;;;;;;;;;;;;;;;;;4986600;28;19913;-76
2022/10/20 15:39:07;;;;;;;;;;;;;;;;;;4989690;28;20368;-74
2022/10/20 15:41:33;;;;;;;;;;;;;;;;;;5002193;28;19972;-77
2022/10/20 15:43:59;;;;;;;;;;;;;;;;;;5012334;28;20368;-76
2022/10/20 15:46:25;;;;;;;;;;;;;;;;;;4988122;28;20051;-76
2022/10/20 15:48:50;;;;;;;;;;;;;;;;;;4998814;28;19920;-76
2022/10/20 15:51:16;;;;;;;;;;;;;;;;;;4991882;28;19913;-76
2022/10/20 15:53:44;;;;;;;;;;;;;;;;;;4988901;28;20311;-77
2022/10/20 15:56:10;;;;;;;;;;;;;;;;;;4998006;28;19913;-75
2022/10/20 15:58:35;;;;;;;;;;;;;;;;;;4969213;28;19918;-75
2022/10/20 16:01:01;;;;;;;;;;;;;;;;;;5008467;28;20249;-75
2022/10/20 16:03:26;;;;;;;;;;;;;;;;;;5022040;28;19913;-76
2022/10/20 16:05:52;;;;;;;;;;;;;;;;;;4998173;28;19918;-76
2022/10/20 16:08:18;;;;;;;;;;;;;;;;;;5004837;28;20458;-77
2022/10/20 16:10:43;;;;;;;;;;;;;;;;;;4998030;28;19917;-76
2022/10/20 16:13:09;;;;;;;;;;;;;;;;;;4994084;28;19977;-76
2022/10/20 16:15:34;;;;;;;;;;;;;;;;;;5012841;28;19917;-75
2022/10/20 16:18:00;;;;;;;;;;;;;;;;;;5000484;28;19909;-76
2022/10/20 16:20:26;;;;;;;;;;;;;;;;;;4981122;28;19917;-76
2022/10/20 16:22:52;;;;;;;;;;;;;;;;;;4987493;28;19920;-76
2022/10/20 16:25:17;;;;;;;;;;;;;;;;;;5016745;28;19913;-76
2022/10/20 16:27:43;;;;;;;;;;;;;;;;;;5017492;28;19918;-76
2022/10/20 16:30:09;;;;;;;;;;;;;;;;;;5011888;28;19917;-76
2022/10/20 16:32:35;;;;;;;;;;;;;;;;;;5004296;28;20462;-76